Airfield :







YOU CAN JOIN US ON...

 
LOGIN :

Register | Disclaimer

   EN    FR    IT 

 









Legend :    VFR   Marginal VFR   IFR   Intensive IFR   Very Intensive IFR
Visi :
Ceiling :
>= 8 km
>= 3000ft
5 to 8 km
1000 to 3000 ft
1500m to 5 km
500 to 1000 ft
800 to 1500m
200 to 500 ft
< 800m
< 200 ft
Symbols :   Thunderstorms  Fog  Heavy snow  Heavy precipitations  Wind > 20 kt






- Airport Elevation : 1166 ft


KMPV - Edward F Knapp State

CURRENT METAR :
  • 211351Z AUTO 28008KT 250V320 10SM SCT055 05/M03 A2994 RMK AO2 SLP150 T00501033

EXPIRED METARs :
  • 211251Z AUTO VRB03KT 10SM OVC048 04/M03 A2996 RMK AO2 SLP154 T00391033
  • 211151Z AUTO 25004KT 10SM BKN048 03/M03 A2997 RMK AO2 SLP160 70008 T00281033 10028 21022 53007
  • 211051Z AUTO 27003KT 10SM FEW050 01/M03 A2996 RMK AO2 SLP157 T00111033
  • 210951Z AUTO 24003KT 10SM BKN050 M01/M04 A2995 RMK AO2 SLP155 T10111039

TAF KMPV
Valid from the 21 at 12:00 until the 22 at 12:00 UTC


211120Z 2112/2212 26006KT P6SM BKN050
FM211600 28011G18KT P6SM BKN050
FM220200 25009KT P6SM SCT060
FM220600 28010G16KT P6SM FEW070
KZBW FIR / North America



MET'MAP, your aeronautical weather chart ! - Copyright ORBIFLY December 2007 - Disclaimer

ORBIFLY MET'MAP TEAM :

Programming & Development : Alexandra Zaïnal
Original concept : Baudouin d'Aumeries
Technical & hardware support : Manuel Goepfert
Assistance : Marc-Olivier Méhu




SOURCES & CREDITS :

   NOAA